Huvudsida
METAR-TAF:

METAR-TAF

Flygplatser :

Paganella, Italien

latitud: 46-09N, longitud: 011-02E, höjd: 2125 m

Aktuellt väderrapport

Denna rapport gjordes för 53 minuter sedan, klockan 21:55 UTC
Vind 26 kt från syd/sydväst
Temperatur 0°C
Fuktighet 86%
Tryck 999 hPa
Sikt under 50 m
underkyld dimma

METAR: LIVP 152155Z 20026KT 0000 FZFG VV/// 00/M02 Q0999 RMK MON INVIS VAL INVIS VIS MIN 0000

Tid: 23:48 (22:48 UTC)


TAF: saknas

Aktuella väderrapporter och prognoser från 4000 flygplatser (METAR- och TAF-rapporter).

De tillgängliga stationerna syns som gula och röda prickar på kartan.

För musen över prickarna för att se namnen på stationerna.

Klicka sedan för att få väderrapporter och prognoser.

För att ändra kartan: Klicka på de gröna knapparna med ett svart kors på för att zooma in; den gröna knappen med ett streck på för att zooma ut; eller på de gröna pilarna för angränsande kartor.


METAR-TAF: